Terminal Aerodrome Forecast
Issued by NWS El Paso, TX

Home | Current Version | Previous Version | Text Only | Print | Product List | Glossary On
Versions: 1 2 3 4 5 6 7 8 9 10 11 12 13 14 15 16 17 18 19
000
FTUS44 KEPZ 202300
TAFELP
TAF
KELP 202340Z 2100/2124 06008KT P6SM VCTS SCT060CB SCT120 SCT250
      TEMPO 2100/2101 04012G20KT
     FM210400 05008KT P6SM SCT060 SCT100 SCT200
     FM211700 10009KT P6SM VCTS SCT040CB SCT100 BKN200=

USA.gov is the U.S. government's official web portal to all federal, state and local government web resources and services.